sensor_id;sensor_type;location;lat;lon;timestamp;P1;durP1;ratioP1;P2;durP2;ratioP2
55063;SDS011;40963;52.168;21.296;2023-04-24T00:02:07;20.23;;;9.18;;
55063;SDS011;40963;52.168;21.296;2023-04-24T00:04:35;23.73;;;8.77;;
55063;SDS011;40963;52.168;21.296;2023-04-24T00:07:05;18.33;;;7.72;;
55063;SDS011;40963;52.168;21.296;2023-04-24T00:09:31;17.17;;;8.27;;
55063;SDS011;40963;52.168;21.296;2023-04-24T00:11:57;14.38;;;8.10;;
55063;SDS011;40963;52.168;21.296;2023-04-24T00:14:23;20.95;;;8.05;;
55063;SDS011;40963;52.168;21.296;2023-04-24T00:16:49;18.20;;;7.85;;
55063;SDS011;40963;52.168;21.296;2023-04-24T00:19:14;20.50;;;8.70;;
55063;SDS011;40963;52.168;21.296;2023-04-24T00:21:41;17.58;;;8.57;;
55063;SDS011;40963;52.168;21.296;2023-04-24T00:24:07;12.43;;;7.80;;
55063;SDS011;40963;52.168;21.296;2023-04-24T00:26:34;13.43;;;8.02;;
55063;SDS011;40963;52.168;21.296;2023-04-24T00:28:59;17.20;;;8.55;;
55063;SDS011;40963;52.168;21.296;2023-04-24T00:31:25;15.35;;;8.60;;
55063;SDS011;40963;52.168;21.296;2023-04-24T00:33:51;15.30;;;8.07;;
55063;SDS011;40963;52.168;21.296;2023-04-24T00:36:16;12.43;;;7.63;;
55063;SDS011;40963;52.168;21.296;2023-04-24T00:38:44;17.20;;;7.80;;
55063;SDS011;40963;52.168;21.296;2023-04-24T00:41:10;15.13;;;8.20;;
55063;SDS011;40963;52.168;21.296;2023-04-24T00:43:36;14.13;;;8.40;;
55063;SDS011;40963;52.168;21.296;2023-04-24T00:46:01;14.93;;;7.45;;
55063;SDS011;40963;52.168;21.296;2023-04-24T00:48:27;21.20;;;8.38;;
55063;SDS011;40963;52.168;21.296;2023-04-24T00:50:53;14.85;;;8.18;;
55063;SDS011;40963;52.168;21.296;2023-04-24T00:53:18;14.43;;;8.15;;
55063;SDS011;40963;52.168;21.296;2023-04-24T00:55:45;16.05;;;8.20;;
55063;SDS011;40963;52.168;21.296;2023-04-24T00:58:11;15.90;;;7.63;;
55063;SDS011;40963;52.168;21.296;2023-04-24T01:00:37;14.00;;;8.40;;
55063;SDS011;40963;52.168;21.296;2023-04-24T01:03:04;12.10;;;7.13;;
55063;SDS011;40963;52.168;21.296;2023-04-24T01:05:31;13.55;;;7.72;;
55063;SDS011;40963;52.168;21.296;2023-04-24T01:07:57;14.30;;;8.48;;
55063;SDS011;40963;52.168;21.296;2023-04-24T01:10:24;18.40;;;8.48;;
55063;SDS011;40963;52.168;21.296;2023-04-24T01:12:52;17.13;;;7.82;;
55063;SDS011;40963;52.168;21.296;2023-04-24T01:15:18;16.85;;;8.48;;
55063;SDS011;40963;52.168;21.296;2023-04-24T01:17:44;14.35;;;8.13;;
55063;SDS011;40963;52.168;21.296;2023-04-24T01:20:10;12.93;;;8.07;;
55063;SDS011;40963;52.168;21.296;2023-04-24T01:22:35;21.90;;;9.93;;
55063;SDS011;40963;52.168;21.296;2023-04-24T01:25:01;18.88;;;8.38;;
55063;SDS011;40963;52.168;21.296;2023-04-24T01:27:28;21.55;;;8.77;;
55063;SDS011;40963;52.168;21.296;2023-04-24T01:29:54;23.83;;;9.05;;
55063;SDS011;40963;52.168;21.296;2023-04-24T01:32:20;16.27;;;8.90;;
55063;SDS011;40963;52.168;21.296;2023-04-24T01:34:46;14.18;;;8.48;;
55063;SDS011;40963;52.168;21.296;2023-04-24T01:37:12;16.20;;;8.43;;
55063;SDS011;40963;52.168;21.296;2023-04-24T01:39:38;17.95;;;8.60;;
55063;SDS011;40963;52.168;21.296;2023-04-24T01:42:04;15.63;;;8.43;;
55063;SDS011;40963;52.168;21.296;2023-04-24T01:44:30;12.50;;;8.35;;
55063;SDS011;40963;52.168;21.296;2023-04-24T01:46:56;16.83;;;7.55;;
55063;SDS011;40963;52.168;21.296;2023-04-24T01:49:22;13.63;;;8.05;;
55063;SDS011;40963;52.168;21.296;2023-04-24T01:51:48;18.35;;;8.80;;
55063;SDS011;40963;52.168;21.296;2023-04-24T01:54:13;25.92;;;9.02;;
55063;SDS011;40963;52.168;21.296;2023-04-24T01:56:40;14.40;;;8.45;;
55063;SDS011;40963;52.168;21.296;2023-04-24T01:59:07;16.88;;;8.35;;
55063;SDS011;40963;52.168;21.296;2023-04-24T02:01:35;17.65;;;7.95;;
55063;SDS011;40963;52.168;21.296;2023-04-24T02:04:02;16.33;;;8.52;;
55063;SDS011;40963;52.168;21.296;2023-04-24T02:06:28;14.38;;;8.45;;
55063;SDS011;40963;52.168;21.296;2023-04-24T02:08:53;14.50;;;8.32;;
55063;SDS011;40963;52.168;21.296;2023-04-24T02:11:19;18.67;;;8.70;;
55063;SDS011;40963;52.168;21.296;2023-04-24T02:13:45;15.80;;;7.97;;
55063;SDS011;40963;52.168;21.296;2023-04-24T02:16:10;14.80;;;8.05;;
55063;SDS011;40963;52.168;21.296;2023-04-24T02:18:36;12.95;;;7.70;;
55063;SDS011;40963;52.168;21.296;2023-04-24T02:21:01;17.65;;;9.30;;
55063;SDS011;40963;52.168;21.296;2023-04-24T02:23:27;15.95;;;8.02;;
55063;SDS011;40963;52.168;21.296;2023-04-24T02:25:53;15.88;;;8.85;;
55063;SDS011;40963;52.168;21.296;2023-04-24T02:28:19;18.33;;;8.85;;
55063;SDS011;40963;52.168;21.296;2023-04-24T02:30:45;15.30;;;8.48;;
55063;SDS011;40963;52.168;21.296;2023-04-24T02:33:11;14.75;;;8.98;;
55063;SDS011;40963;52.168;21.296;2023-04-24T02:35:36;20.88;;;9.00;;
55063;SDS011;40963;52.168;21.296;2023-04-24T02:38:02;17.60;;;8.73;;
55063;SDS011;40963;52.168;21.296;2023-04-24T02:40:28;18.70;;;8.40;;
55063;SDS011;40963;52.168;21.296;2023-04-24T02:42:54;13.77;;;8.40;;
55063;SDS011;40963;52.168;21.296;2023-04-24T02:45:20;14.82;;;8.63;;
55063;SDS011;40963;52.168;21.296;2023-04-24T02:47:45;14.32;;;8.60;;
55063;SDS011;40963;52.168;21.296;2023-04-24T02:50:11;13.93;;;8.23;;
55063;SDS011;40963;52.168;21.296;2023-04-24T02:52:37;17.42;;;8.18;;
55063;SDS011;40963;52.168;21.296;2023-04-24T02:55:02;17.73;;;8.55;;
55063;SDS011;40963;52.168;21.296;2023-04-24T02:57:28;18.70;;;9.00;;
55063;SDS011;40963;52.168;21.296;2023-04-24T02:59:54;16.70;;;8.88;;
55063;SDS011;40963;52.168;21.296;2023-04-24T03:02:19;15.07;;;8.57;;
55063;SDS011;40963;52.168;21.296;2023-04-24T03:04:45;14.55;;;8.85;;
55063;SDS011;40963;52.168;21.296;2023-04-24T03:07:12;12.63;;;8.43;;
55063;SDS011;40963;52.168;21.296;2023-04-24T03:09:39;18.90;;;8.82;;
55063;SDS011;40963;52.168;21.296;2023-04-24T03:12:05;16.85;;;9.82;;
55063;SDS011;40963;52.168;21.296;2023-04-24T03:14:31;15.45;;;9.05;;
55063;SDS011;40963;52.168;21.296;2023-04-24T03:16:56;13.23;;;7.85;;
55063;SDS011;40963;52.168;21.296;2023-04-24T03:19:22;22.55;;;8.57;;
55063;SDS011;40963;52.168;21.296;2023-04-24T03:21:48;23.55;;;8.88;;
55063;SDS011;40963;52.168;21.296;2023-04-24T03:24:14;15.07;;;8.65;;
55063;SDS011;40963;52.168;21.296;2023-04-24T03:26:40;14.55;;;9.45;;
55063;SDS011;40963;52.168;21.296;2023-04-24T03:29:05;16.40;;;8.15;;
55063;SDS011;40963;52.168;21.296;2023-04-24T03:31:31;19.52;;;8.88;;
55063;SDS011;40963;52.168;21.296;2023-04-24T03:33:56;22.38;;;10.05;;
55063;SDS011;40963;52.168;21.296;2023-04-24T03:36:22;21.77;;;10.00;;
55063;SDS011;40963;52.168;21.296;2023-04-24T03:38:47;15.68;;;9.30;;
55063;SDS011;40963;52.168;21.296;2023-04-24T03:41:13;29.77;;;11.25;;
55063;SDS011;40963;52.168;21.296;2023-04-24T03:43:38;18.63;;;9.65;;
55063;SDS011;40963;52.168;21.296;2023-04-24T03:46:04;17.90;;;9.43;;
55063;SDS011;40963;52.168;21.296;2023-04-24T03:48:30;18.65;;;9.30;;
55063;SDS011;40963;52.168;21.296;2023-04-24T03:50:55;17.95;;;9.82;;
55063;SDS011;40963;52.168;21.296;2023-04-24T03:53:21;15.30;;;10.02;;
55063;SDS011;40963;52.168;21.296;2023-04-24T03:55:46;30.30;;;10.02;;
55063;SDS011;40963;52.168;21.296;2023-04-24T03:58:12;23.50;;;9.45;;
55063;SDS011;40963;52.168;21.296;2023-04-24T04:00:41;20.15;;;9.90;;
55063;SDS011;40963;52.168;21.296;2023-04-24T04:03:06;13.48;;;8.75;;
55063;SDS011;40963;52.168;21.296;2023-04-24T04:05:32;15.35;;;9.10;;
55063;SDS011;40963;52.168;21.296;2023-04-24T04:07:58;17.17;;;8.82;;
55063;SDS011;40963;52.168;21.296;2023-04-24T04:10:23;17.20;;;9.15;;
55063;SDS011;40963;52.168;21.296;2023-04-24T04:12:49;15.30;;;8.68;;
55063;SDS011;40963;52.168;21.296;2023-04-24T04:15:14;18.40;;;8.98;;
55063;SDS011;40963;52.168;21.296;2023-04-24T04:17:40;14.80;;;8.75;;
55063;SDS011;40963;52.168;21.296;2023-04-24T04:20:06;19.63;;;9.02;;
55063;SDS011;40963;52.168;21.296;2023-04-24T04:22:34;24.65;;;10.18;;
55063;SDS011;40963;52.168;21.296;2023-04-24T04:25:00;18.77;;;9.52;;
55063;SDS011;40963;52.168;21.296;2023-04-24T04:27:26;20.42;;;8.27;;
55063;SDS011;40963;52.168;21.296;2023-04-24T04:29:51;21.42;;;9.40;;
55063;SDS011;40963;52.168;21.296;2023-04-24T04:32:17;16.58;;;9.90;;
55063;SDS011;40963;52.168;21.296;2023-04-24T04:34:43;18.75;;;9.65;;
55063;SDS011;40963;52.168;21.296;2023-04-24T04:37:10;21.52;;;9.18;;
55063;SDS011;40963;52.168;21.296;2023-04-24T04:39:37;16.27;;;9.07;;
55063;SDS011;40963;52.168;21.296;2023-04-24T04:42:03;18.33;;;8.98;;
55063;SDS011;40963;52.168;21.296;2023-04-24T04:44:28;13.35;;;8.05;;
55063;SDS011;40963;52.168;21.296;2023-04-24T04:46:55;16.00;;;8.25;;
55063;SDS011;40963;52.168;21.296;2023-04-24T04:49:21;14.07;;;8.68;;
55063;SDS011;40963;52.168;21.296;2023-04-24T04:51:48;18.35;;;8.52;;
55063;SDS011;40963;52.168;21.296;2023-04-24T04:54:15;20.20;;;8.80;;
55063;SDS011;40963;52.168;21.296;2023-04-24T04:56:41;13.15;;;8.52;;
55063;SDS011;40963;52.168;21.296;2023-04-24T04:59:07;13.35;;;8.25;;
55063;SDS011;40963;52.168;21.296;2023-04-24T05:01:32;19.95;;;8.70;;
55063;SDS011;40963;52.168;21.296;2023-04-24T05:03:58;22.02;;;8.32;;
55063;SDS011;40963;52.168;21.296;2023-04-24T05:06:23;14.70;;;8.55;;
55063;SDS011;40963;52.168;21.296;2023-04-24T05:08:50;15.05;;;9.27;;
55063;SDS011;40963;52.168;21.296;2023-04-24T05:11:16;12.43;;;8.30;;
55063;SDS011;40963;52.168;21.296;2023-04-24T05:13:41;13.18;;;8.32;;
55063;SDS011;40963;52.168;21.296;2023-04-24T05:16:07;12.73;;;8.15;;
55063;SDS011;40963;52.168;21.296;2023-04-24T05:18:32;16.13;;;8.07;;
55063;SDS011;40963;52.168;21.296;2023-04-24T05:20:58;18.67;;;8.48;;
55063;SDS011;40963;52.168;21.296;2023-04-24T05:23:24;16.08;;;7.90;;
55063;SDS011;40963;52.168;21.296;2023-04-24T05:25:49;16.15;;;8.45;;
55063;SDS011;40963;52.168;21.296;2023-04-24T05:28:15;15.73;;;7.88;;
55063;SDS011;40963;52.168;21.296;2023-04-24T05:30:41;15.95;;;7.95;;
55063;SDS011;40963;52.168;21.296;2023-04-24T05:33:06;13.68;;;8.07;;
55063;SDS011;40963;52.168;21.296;2023-04-24T05:35:33;13.82;;;8.30;;
55063;SDS011;40963;52.168;21.296;2023-04-24T05:37:59;18.05;;;7.90;;
55063;SDS011;40963;52.168;21.296;2023-04-24T05:40:24;15.23;;;8.15;;
55063;SDS011;40963;52.168;21.296;2023-04-24T05:42:50;15.68;;;7.75;;
55063;SDS011;40963;52.168;21.296;2023-04-24T05:45:15;20.80;;;8.57;;
55063;SDS011;40963;52.168;21.296;2023-04-24T05:47:42;18.27;;;7.22;;
55063;SDS011;40963;52.168;21.296;2023-04-24T05:50:11;17.85;;;8.10;;
55063;SDS011;40963;52.168;21.296;2023-04-24T05:52:37;15.38;;;8.50;;
55063;SDS011;40963;52.168;21.296;2023-04-24T05:55:03;12.55;;;8.05;;
55063;SDS011;40963;52.168;21.296;2023-04-24T05:57:28;16.50;;;7.55;;
55063;SDS011;40963;52.168;21.296;2023-04-24T05:59:55;16.17;;;8.30;;
55063;SDS011;40963;52.168;21.296;2023-04-24T06:02:21;18.73;;;8.07;;
55063;SDS011;40963;52.168;21.296;2023-04-24T06:04:46;12.98;;;8.07;;
55063;SDS011;40963;52.168;21.296;2023-04-24T06:07:12;18.15;;;8.18;;
55063;SDS011;40963;52.168;21.296;2023-04-24T06:09:38;15.65;;;8.10;;
55063;SDS011;40963;52.168;21.296;2023-04-24T06:12:03;16.98;;;8.57;;
55063;SDS011;40963;52.168;21.296;2023-04-24T06:14:29;27.80;;;8.60;;
55063;SDS011;40963;52.168;21.296;2023-04-24T06:16:55;15.45;;;7.80;;
55063;SDS011;40963;52.168;21.296;2023-04-24T06:19:20;15.98;;;7.50;;
55063;SDS011;40963;52.168;21.296;2023-04-24T06:21:46;20.38;;;8.18;;
55063;SDS011;40963;52.168;21.296;2023-04-24T06:24:13;17.20;;;7.88;;
55063;SDS011;40963;52.168;21.296;2023-04-24T06:26:40;12.70;;;8.07;;
55063;SDS011;40963;52.168;21.296;2023-04-24T06:29:06;11.18;;;7.47;;
55063;SDS011;40963;52.168;21.296;2023-04-24T06:31:32;16.42;;;7.70;;
55063;SDS011;40963;52.168;21.296;2023-04-24T06:34:01;26.38;;;8.60;;
55063;SDS011;40963;52.168;21.296;2023-04-24T06:36:27;27.52;;;9.00;;
55063;SDS011;40963;52.168;21.296;2023-04-24T06:38:53;13.98;;;8.00;;
55063;SDS011;40963;52.168;21.296;2023-04-24T06:41:19;13.88;;;7.97;;
55063;SDS011;40963;52.168;21.296;2023-04-24T06:43:45;16.02;;;7.53;;
55063;SDS011;40963;52.168;21.296;2023-04-24T06:46:10;15.65;;;8.52;;
55063;SDS011;40963;52.168;21.296;2023-04-24T06:48:37;20.58;;;7.70;;
55063;SDS011;40963;52.168;21.296;2023-04-24T06:51:04;13.43;;;7.85;;
55063;SDS011;40963;52.168;21.296;2023-04-24T06:53:30;15.90;;;7.90;;
55063;SDS011;40963;52.168;21.296;2023-04-24T06:55:55;16.60;;;7.82;;
55063;SDS011;40963;52.168;21.296;2023-04-24T06:58:21;15.57;;;7.45;;
55063;SDS011;40963;52.168;21.296;2023-04-24T07:00:46;16.77;;;8.00;;
55063;SDS011;40963;52.168;21.296;2023-04-24T07:03:12;15.98;;;7.80;;
55063;SDS011;40963;52.168;21.296;2023-04-24T07:05:38;25.52;;;7.97;;
55063;SDS011;40963;52.168;21.296;2023-04-24T07:08:03;26.52;;;7.55;;
55063;SDS011;40963;52.168;21.296;2023-04-24T07:10:29;18.90;;;8.10;;
55063;SDS011;40963;52.168;21.296;2023-04-24T07:12:55;25.88;;;7.95;;
55063;SDS011;40963;52.168;21.296;2023-04-24T07:15:23;17.48;;;7.28;;
55063;SDS011;40963;52.168;21.296;2023-04-24T07:17:49;16.60;;;7.15;;
55063;SDS011;40963;52.168;21.296;2023-04-24T07:20:15;10.98;;;6.63;;
55063;SDS011;40963;52.168;21.296;2023-04-24T07:22:40;10.48;;;6.55;;
55063;SDS011;40963;52.168;21.296;2023-04-24T07:25:06;11.75;;;6.70;;
55063;SDS011;40963;52.168;21.296;2023-04-24T07:27:33;10.82;;;7.90;;
55063;SDS011;40963;52.168;21.296;2023-04-24T07:29:59;13.23;;;7.45;;
55063;SDS011;40963;52.168;21.296;2023-04-24T07:32:24;12.32;;;7.18;;
55063;SDS011;40963;52.168;21.296;2023-04-24T07:34:50;12.20;;;7.85;;
55063;SDS011;40963;52.168;21.296;2023-04-24T07:37:15;20.08;;;7.35;;
55063;SDS011;40963;52.168;21.296;2023-04-24T07:39:41;13.65;;;6.70;;
55063;SDS011;40963;52.168;21.296;2023-04-24T07:42:07;10.45;;;6.90;;
55063;SDS011;40963;52.168;21.296;2023-04-24T07:44:32;10.65;;;6.82;;
55063;SDS011;40963;52.168;21.296;2023-04-24T07:46:58;11.48;;;6.63;;
55063;SDS011;40963;52.168;21.296;2023-04-24T07:49:24;13.48;;;6.72;;
55063;SDS011;40963;52.168;21.296;2023-04-24T07:51:49;9.40;;;6.45;;
55063;SDS011;40963;52.168;21.296;2023-04-24T07:54:15;14.38;;;6.38;;
55063;SDS011;40963;52.168;21.296;2023-04-24T07:56:41;20.08;;;7.25;;
55063;SDS011;40963;52.168;21.296;2023-04-24T07:59:08;10.07;;;6.63;;
55063;SDS011;40963;52.168;21.296;2023-04-24T08:01:35;10.13;;;6.68;;
55063;SDS011;40963;52.168;21.296;2023-04-24T08:04:01;12.00;;;6.57;;
55063;SDS011;40963;52.168;21.296;2023-04-24T08:06:27;12.65;;;6.93;;
55063;SDS011;40963;52.168;21.296;2023-04-24T08:08:57;19.08;;;6.35;;
55063;SDS011;40963;52.168;21.296;2023-04-24T08:11:22;8.23;;;6.13;;
55063;SDS011;40963;52.168;21.296;2023-04-24T08:13:48;13.20;;;6.50;;
55063;SDS011;40963;52.168;21.296;2023-04-24T08:16:14;9.43;;;6.18;;
55063;SDS011;40963;52.168;21.296;2023-04-24T08:18:40;13.18;;;6.13;;
55063;SDS011;40963;52.168;21.296;2023-04-24T08:21:06;8.20;;;6.10;;
55063;SDS011;40963;52.168;21.296;2023-04-24T08:23:31;9.05;;;5.97;;
55063;SDS011;40963;52.168;21.296;2023-04-24T08:25:57;10.60;;;6.40;;
55063;SDS011;40963;52.168;21.296;2023-04-24T08:28:22;13.00;;;6.28;;
55063;SDS011;40963;52.168;21.296;2023-04-24T08:30:48;12.15;;;5.97;;
55063;SDS011;40963;52.168;21.296;2023-04-24T08:33:19;12.70;;;6.45;;
55063;SDS011;40963;52.168;21.296;2023-04-24T08:35:48;14.57;;;7.25;;
55063;SDS011;40963;52.168;21.296;2023-04-24T08:38:13;9.27;;;5.60;;
55063;SDS011;40963;52.168;21.296;2023-04-24T08:40:40;22.20;;;6.20;;
55063;SDS011;40963;52.168;21.296;2023-04-24T08:43:06;15.55;;;5.57;;
55063;SDS011;40963;52.168;21.296;2023-04-24T08:45:32;17.23;;;6.20;;
55063;SDS011;40963;52.168;21.296;2023-04-24T08:47:58;39.25;;;6.75;;
55063;SDS011;40963;52.168;21.296;2023-04-24T08:50:24;9.05;;;6.10;;
55063;SDS011;40963;52.168;21.296;2023-04-24T08:52:50;9.95;;;6.18;;
55063;SDS011;40963;52.168;21.296;2023-04-24T08:55:18;10.07;;;6.47;;
55063;SDS011;40963;52.168;21.296;2023-04-24T08:57:45;16.10;;;6.57;;
55063;SDS011;40963;52.168;21.296;2023-04-24T09:00:15;16.75;;;6.05;;
55063;SDS011;40963;52.168;21.296;2023-04-24T09:02:42;8.02;;;5.63;;
55063;SDS011;40963;52.168;21.296;2023-04-24T09:05:10;12.98;;;5.65;;
55063;SDS011;40963;52.168;21.296;2023-04-24T09:07:38;12.15;;;5.85;;
55063;SDS011;40963;52.168;21.296;2023-04-24T09:10:07;7.47;;;5.95;;
55063;SDS011;40963;52.168;21.296;2023-04-24T09:12:33;13.93;;;6.15;;
55063;SDS011;40963;52.168;21.296;2023-04-24T09:15:00;9.52;;;5.60;;
55063;SDS011;40963;52.168;21.296;2023-04-24T09:17:28;9.60;;;5.78;;
55063;SDS011;40963;52.168;21.296;2023-04-24T09:19:55;8.98;;;5.80;;
55063;SDS011;40963;52.168;21.296;2023-04-24T09:22:20;8.43;;;6.10;;
55063;SDS011;40963;52.168;21.296;2023-04-24T09:24:46;9.80;;;5.43;;
55063;SDS011;40963;52.168;21.296;2023-04-24T09:27:13;7.60;;;5.35;;
55063;SDS011;40963;52.168;21.296;2023-04-24T09:29:45;14.23;;;5.60;;
55063;SDS011;40963;52.168;21.296;2023-04-24T09:32:22;8.50;;;4.97;;
55063;SDS011;40963;52.168;21.296;2023-04-24T09:34:50;7.55;;;5.28;;
55063;SDS011;40963;52.168;21.296;2023-04-24T09:37:36;11.68;;;5.80;;
55063;SDS011;40963;52.168;21.296;2023-04-24T09:40:09;6.13;;;4.88;;
55063;SDS011;40963;52.168;21.296;2023-04-24T09:42:52;6.82;;;5.38;;
55063;SDS011;40963;52.168;21.296;2023-04-24T09:45:19;11.05;;;5.80;;
55063;SDS011;40963;52.168;21.296;2023-04-24T09:47:45;9.18;;;5.60;;
55063;SDS011;40963;52.168;21.296;2023-04-24T09:52:41;9.95;;;5.70;;
55063;SDS011;40963;52.168;21.296;2023-04-24T09:55:14;9.05;;;6.10;;
55063;SDS011;40963;52.168;21.296;2023-04-24T09:57:57;11.02;;;6.32;;
55063;SDS011;40963;52.168;21.296;2023-04-24T10:00:31;8.95;;;6.30;;
55063;SDS011;40963;52.168;21.296;2023-04-24T10:02:58;10.98;;;6.00;;
55063;SDS011;40963;52.168;21.296;2023-04-24T10:05:29;9.20;;;6.53;;
55063;SDS011;40963;52.168;21.296;2023-04-24T10:08:00;14.27;;;6.38;;
55063;SDS011;40963;52.168;21.296;2023-04-24T10:10:29;7.18;;;6.18;;
55063;SDS011;40963;52.168;21.296;2023-04-24T10:12:56;8.73;;;6.57;;
55063;SDS011;40963;52.168;21.296;2023-04-24T10:15:22;13.90;;;6.72;;
55063;SDS011;40963;52.168;21.296;2023-04-24T10:17:49;11.05;;;6.20;;
55063;SDS011;40963;52.168;21.296;2023-04-24T10:20:22;9.60;;;6.38;;
55063;SDS011;40963;52.168;21.296;2023-04-24T10:22:49;8.35;;;6.32;;
55063;SDS011;40963;52.168;21.296;2023-04-24T10:25:18;14.85;;;6.30;;
55063;SDS011;40963;52.168;21.296;2023-04-24T10:27:48;18.85;;;6.47;;
55063;SDS011;40963;52.168;21.296;2023-04-24T10:30:15;9.65;;;6.20;;
55063;SDS011;40963;52.168;21.296;2023-04-24T10:32:41;10.45;;;6.65;;
55063;SDS011;40963;52.168;21.296;2023-04-24T10:35:07;10.32;;;6.50;;
55063;SDS011;40963;52.168;21.296;2023-04-24T10:37:35;13.65;;;6.50;;
55063;SDS011;40963;52.168;21.296;2023-04-24T10:40:05;10.60;;;6.00;;
55063;SDS011;40963;52.168;21.296;2023-04-24T10:42:32;10.95;;;5.68;;
55063;SDS011;40963;52.168;21.296;2023-04-24T10:44:59;8.90;;;5.70;;
55063;SDS011;40963;52.168;21.296;2023-04-24T10:47:27;10.20;;;5.93;;
55063;SDS011;40963;52.168;21.296;2023-04-24T10:49:52;10.55;;;6.07;;
55063;SDS011;40963;52.168;21.296;2023-04-24T10:52:18;16.45;;;6.07;;
55063;SDS011;40963;52.168;21.296;2023-04-24T10:54:46;12.40;;;6.03;;
55063;SDS011;40963;52.168;21.296;2023-04-24T10:59:44;12.23;;;5.78;;
55063;SDS011;40963;52.168;21.296;2023-04-24T11:02:11;11.27;;;5.75;;
55063;SDS011;40963;52.168;21.296;2023-04-24T11:04:40;8.70;;;5.75;;
55063;SDS011;40963;52.168;21.296;2023-04-24T11:07:08;11.90;;;6.47;;
55063;SDS011;40963;52.168;21.296;2023-04-24T11:09:35;7.18;;;5.57;;
55063;SDS011;40963;52.168;21.296;2023-04-24T11:12:05;23.83;;;5.63;;
55063;SDS011;40963;52.168;21.296;2023-04-24T11:17:28;6.65;;;5.45;;
55063;SDS011;40963;52.168;21.296;2023-04-24T11:20:05;6.15;;;5.13;;
55063;SDS011;40963;52.168;21.296;2023-04-24T11:22:33;12.20;;;5.15;;
55063;SDS011;40963;52.168;21.296;2023-04-24T11:25:00;8.73;;;5.22;;
55063;SDS011;40963;52.168;21.296;2023-04-24T11:27:30;25.40;;;5.60;;
55063;SDS011;40963;52.168;21.296;2023-04-24T11:30:03;11.23;;;5.70;;
55063;SDS011;40963;52.168;21.296;2023-04-24T11:32:38;8.73;;;4.95;;
55063;SDS011;40963;52.168;21.296;2023-04-24T11:35:19;8.68;;;4.82;;
55063;SDS011;40963;52.168;21.296;2023-04-24T11:37:48;6.55;;;5.00;;
55063;SDS011;40963;52.168;21.296;2023-04-24T11:40:15;5.68;;;4.90;;
55063;SDS011;40963;52.168;21.296;2023-04-24T11:42:45;12.75;;;4.90;;
55063;SDS011;40963;52.168;21.296;2023-04-24T11:45:21;7.93;;;4.35;;
55063;SDS011;40963;52.168;21.296;2023-04-24T11:47:48;5.32;;;4.32;;
55063;SDS011;40963;52.168;21.296;2023-04-24T11:50:14;7.03;;;4.53;;
55063;SDS011;40963;52.168;21.296;2023-04-24T11:52:42;13.48;;;4.45;;
55063;SDS011;40963;52.168;21.296;2023-04-24T11:55:30;5.78;;;4.22;;
55063;SDS011;40963;52.168;21.296;2023-04-24T11:57:56;5.38;;;4.15;;
55063;SDS011;40963;52.168;21.296;2023-04-24T12:00:24;7.05;;;4.72;;
55063;SDS011;40963;52.168;21.296;2023-04-24T12:02:52;5.70;;;4.60;;
55063;SDS011;40963;52.168;21.296;2023-04-24T12:05:32;7.55;;;4.68;;
55063;SDS011;40963;52.168;21.296;2023-04-24T12:07:58;7.85;;;4.35;;
55063;SDS011;40963;52.168;21.296;2023-04-24T12:10:25;5.45;;;3.70;;
55063;SDS011;40963;52.168;21.296;2023-04-24T12:12:53;12.10;;;4.70;;
55063;SDS011;40963;52.168;21.296;2023-04-24T12:15:20;10.63;;;4.18;;
55063;SDS011;40963;52.168;21.296;2023-04-24T12:17:46;5.53;;;4.03;;
55063;SDS011;40963;52.168;21.296;2023-04-24T12:20:13;7.35;;;4.43;;
55063;SDS011;40963;52.168;21.296;2023-04-24T12:22:52;7.13;;;4.65;;
55063;SDS011;40963;52.168;21.296;2023-04-24T12:25:20;6.47;;;4.32;;
55063;SDS011;40963;52.168;21.296;2023-04-24T12:30:31;12.43;;;4.53;;
55063;SDS011;40963;52.168;21.296;2023-04-24T12:33:03;10.43;;;4.20;;
55063;SDS011;40963;52.168;21.296;2023-04-24T12:35:29;7.47;;;4.55;;
55063;SDS011;40963;52.168;21.296;2023-04-24T12:38:05;6.88;;;4.80;;
55063;SDS011;40963;52.168;21.296;2023-04-24T12:40:32;10.30;;;5.32;;
55063;SDS011;40963;52.168;21.296;2023-04-24T12:42:57;12.27;;;5.20;;
55063;SDS011;40963;52.168;21.296;2023-04-24T12:45:23;6.10;;;4.53;;
55063;SDS011;40963;52.168;21.296;2023-04-24T12:47:50;10.95;;;4.88;;
55063;SDS011;40963;52.168;21.296;2023-04-24T12:50:16;8.57;;;5.40;;
55063;SDS011;40963;52.168;21.296;2023-04-24T12:52:42;10.55;;;4.85;;
55063;SDS011;40963;52.168;21.296;2023-04-24T12:55:08;7.88;;;4.53;;
55063;SDS011;40963;52.168;21.296;2023-04-24T12:57:34;7.90;;;4.95;;
55063;SDS011;40963;52.168;21.296;2023-04-24T13:00:01;6.32;;;4.15;;
55063;SDS011;40963;52.168;21.296;2023-04-24T13:02:29;8.43;;;4.15;;
55063;SDS011;40963;52.168;21.296;2023-04-24T13:04:58;8.05;;;4.10;;
55063;SDS011;40963;52.168;21.296;2023-04-24T13:07:24;10.15;;;3.88;;
55063;SDS011;40963;52.168;21.296;2023-04-24T13:09:51;7.95;;;4.25;;
55063;SDS011;40963;52.168;21.296;2023-04-24T13:12:18;5.90;;;4.22;;
55063;SDS011;40963;52.168;21.296;2023-04-24T13:14:43;7.35;;;4.63;;
55063;SDS011;40963;52.168;21.296;2023-04-24T13:17:10;6.93;;;4.30;;
55063;SDS011;40963;52.168;21.296;2023-04-24T13:19:37;8.48;;;4.82;;
55063;SDS011;40963;52.168;21.296;2023-04-24T13:22:03;6.05;;;4.55;;
55063;SDS011;40963;52.168;21.296;2023-04-24T13:24:30;9.27;;;4.63;;
55063;SDS011;40963;52.168;21.296;2023-04-24T13:26:56;6.03;;;3.92;;
55063;SDS011;40963;52.168;21.296;2023-04-24T13:29:22;7.53;;;4.30;;
55063;SDS011;40963;52.168;21.296;2023-04-24T13:31:49;5.43;;;3.10;;
55063;SDS011;40963;52.168;21.296;2023-04-24T13:34:16;9.90;;;3.45;;
55063;SDS011;40963;52.168;21.296;2023-04-24T13:36:42;5.95;;;3.03;;
55063;SDS011;40963;52.168;21.296;2023-04-24T13:39:08;3.63;;;3.10;;
55063;SDS011;40963;52.168;21.296;2023-04-24T13:41:34;6.65;;;3.35;;
55063;SDS011;40963;52.168;21.296;2023-04-24T13:44:01;4.80;;;3.25;;
55063;SDS011;40963;52.168;21.296;2023-04-24T13:46:27;3.53;;;2.95;;
55063;SDS011;40963;52.168;21.296;2023-04-24T13:48:52;3.45;;;2.90;;
55063;SDS011;40963;52.168;21.296;2023-04-24T13:51:18;4.70;;;2.90;;
55063;SDS011;40963;52.168;21.296;2023-04-24T13:53:44;3.03;;;2.70;;
55063;SDS011;40963;52.168;21.296;2023-04-24T13:56:09;4.28;;;2.70;;
55063;SDS011;40963;52.168;21.296;2023-04-24T13:58:35;3.30;;;2.45;;
55063;SDS011;40963;52.168;21.296;2023-04-24T14:01:02;3.13;;;2.85;;
55063;SDS011;40963;52.168;21.296;2023-04-24T14:03:28;3.00;;;2.67;;
55063;SDS011;40963;52.168;21.296;2023-04-24T14:05:54;2.58;;;2.38;;
55063;SDS011;40963;52.168;21.296;2023-04-24T14:08:19;4.20;;;2.53;;
55063;SDS011;40963;52.168;21.296;2023-04-24T14:10:45;6.05;;;2.50;;
55063;SDS011;40963;52.168;21.296;2023-04-24T14:13:11;3.17;;;2.88;;
55063;SDS011;40963;52.168;21.296;2023-04-24T14:15:37;2.90;;;2.70;;
55063;SDS011;40963;52.168;21.296;2023-04-24T14:18:02;3.97;;;3.03;;
55063;SDS011;40963;52.168;21.296;2023-04-24T14:20:28;4.63;;;3.10;;
55063;SDS011;40963;52.168;21.296;2023-04-24T14:22:54;3.95;;;3.08;;
55063;SDS011;40963;52.168;21.296;2023-04-24T14:25:20;4.13;;;2.97;;
55063;SDS011;40963;52.168;21.296;2023-04-24T14:27:47;3.17;;;2.88;;
55063;SDS011;40963;52.168;21.296;2023-04-24T14:30:12;6.35;;;3.25;;
55063;SDS011;40963;52.168;21.296;2023-04-24T14:32:39;7.55;;;3.58;;
55063;SDS011;40963;52.168;21.296;2023-04-24T14:35:05;5.40;;;3.28;;